createdAt,value
2022-09-07T00:00:37.965Z,13.88
2022-09-07T00:03:05.887Z,13.91
2022-09-07T00:05:33.479Z,13.86
2022-09-07T00:08:00.808Z,13.89
2022-09-07T00:10:28.100Z,13.81
2022-09-07T00:12:55.223Z,13.83
2022-09-07T00:15:23.846Z,13.83
2022-09-07T00:17:50.922Z,13.83
2022-09-07T00:20:18.219Z,13.82
2022-09-07T00:22:46.415Z,13.73
2022-09-07T00:25:13.520Z,13.71
2022-09-07T00:27:41.479Z,13.67
2022-09-07T00:30:09.021Z,13.65
2022-09-07T00:32:36.068Z,13.58
2022-09-07T00:35:03.473Z,13.55
2022-09-07T00:37:30.631Z,13.51
2022-09-07T00:39:57.863Z,13.50
2022-09-07T00:42:25.045Z,13.50
2022-09-07T00:45:10.518Z,13.50
2022-09-07T00:48:18.306Z,13.47
2022-09-07T00:50:51.397Z,13.37
2022-09-07T00:53:23.888Z,13.44
2022-09-07T00:55:52.971Z,13.42
2022-09-07T00:58:22.220Z,13.40
2022-09-07T01:00:51.058Z,13.37
2022-09-07T01:03:23.228Z,13.34
2022-09-07T01:05:59.577Z,13.27
2022-09-07T01:08:27.275Z,13.32
2022-09-07T01:10:55.699Z,13.32
2022-09-07T01:13:23.227Z,13.26
2022-09-07T01:16:27.663Z,13.28
2022-09-07T01:19:09.307Z,13.24
2022-09-07T01:21:57.821Z,13.21
2022-09-07T01:24:42.876Z,13.18
2022-09-07T01:27:47.317Z,13.10
2022-09-07T01:30:23.280Z,13.01
2022-09-07T01:33:09.267Z,12.96
2022-09-07T01:35:48.318Z,12.93
2022-09-07T01:38:27.997Z,12.86
2022-09-07T01:41:01.167Z,12.85
2022-09-07T01:43:45.644Z,12.82
2022-09-07T01:46:21.348Z,12.78
2022-09-07T01:48:53.287Z,12.74
2022-09-07T01:51:23.624Z,12.69
2022-09-07T01:53:57.021Z,12.64
2022-09-07T01:56:31.754Z,12.66
2022-09-07T01:59:10.150Z,12.61
2022-09-07T02:01:45.958Z,12.63
2022-09-07T02:04:38.756Z,12.59
2022-09-07T02:07:17.946Z,12.54
2022-09-07T02:10:05.877Z,12.50
2022-09-07T02:12:51.180Z,12.46
2022-09-07T02:15:25.280Z,12.42
2022-09-07T02:17:58.746Z,12.39
2022-09-07T02:20:31.612Z,12.28
2022-09-07T02:23:02.897Z,12.25
2022-09-07T02:25:38.102Z,12.22
2022-09-07T02:28:10.759Z,12.17
2022-09-07T02:30:38.303Z,12.11
2022-09-07T02:33:06.196Z,12.14
2022-09-07T02:35:34.128Z,12.12
2022-09-07T02:38:05.138Z,12.16
2022-09-07T02:40:32.788Z,12.13
2022-09-07T02:43:02.726Z,12.13
2022-09-07T02:45:52.303Z,12.12
2022-09-07T02:48:45.341Z,12.13
2022-09-07T02:51:40.947Z,12.11
2022-09-07T02:54:44.164Z,12.05
2022-09-07T02:57:26.600Z,12.02
2022-09-07T03:00:09.900Z,12.03
2022-09-07T03:02:58.426Z,11.97
2022-09-07T03:05:55.416Z,11.93
2022-09-07T03:08:32.357Z,11.87
2022-09-07T03:11:00.241Z,11.85
2022-09-07T03:13:29.690Z,11.86
2022-09-07T03:15:57.259Z,11.81
2022-09-07T03:18:25.754Z,11.84
2022-09-07T03:20:53.707Z,11.82
2022-09-07T03:23:20.966Z,11.85
2022-09-07T03:25:49.357Z,11.84
2022-09-07T03:28:16.508Z,11.86
2022-09-07T03:30:44.669Z,11.84
2022-09-07T03:33:12.117Z,11.90
2022-09-07T03:35:39.236Z,11.87
2022-09-07T03:38:06.280Z,11.81
2022-09-07T03:40:33.346Z,11.80
2022-09-07T03:43:00.427Z,11.80
2022-09-07T03:45:27.504Z,11.79
2022-09-07T03:47:54.598Z,11.78
2022-09-07T03:50:21.686Z,11.76
2022-09-07T03:52:48.746Z,11.74
2022-09-07T03:55:15.886Z,11.72
2022-09-07T03:57:43.794Z,11.73
2022-09-07T04:00:11.628Z,11.75
2022-09-07T04:02:41.921Z,11.75
2022-09-07T04:05:09.495Z,11.74
2022-09-07T04:07:36.867Z,11.68
2022-09-07T04:10:04.397Z,11.67
2022-09-07T04:12:31.473Z,11.63
2022-09-07T04:14:58.578Z,11.63
2022-09-07T04:17:25.697Z,11.69
2022-09-07T04:19:52.686Z,11.66
2022-09-07T04:22:19.778Z,11.65
2022-09-07T04:24:46.834Z,11.64
2022-09-07T04:27:13.958Z,11.60
2022-09-07T04:29:41.017Z,11.57
2022-09-07T04:32:11.391Z,11.53
2022-09-07T04:34:40.683Z,11.52
2022-09-07T04:37:07.813Z,11.54
2022-09-07T04:39:35.628Z,11.53
2022-09-07T04:42:02.789Z,11.52
2022-09-07T04:44:29.798Z,11.51
2022-09-07T04:46:57.047Z,11.49
2022-09-07T04:49:24.109Z,11.54
2022-09-07T04:51:51.230Z,11.39
2022-09-07T04:54:18.280Z,11.59
2022-09-07T04:56:45.470Z,11.59
2022-09-07T04:59:12.730Z,11.63
2022-09-07T05:01:40.203Z,11.67
2022-09-07T05:04:07.267Z,11.68
2022-09-07T05:06:34.781Z,11.75
2022-09-07T05:09:01.906Z,11.79
2022-09-07T05:11:30.103Z,11.88
2022-09-07T05:13:59.039Z,11.81
2022-09-07T05:16:27.071Z,11.96
2022-09-07T05:19:01.363Z,12.05
2022-09-07T05:21:34.078Z,12.10
2022-09-07T05:24:01.641Z,12.23
2022-09-07T05:26:30.854Z,12.31
2022-09-07T05:31:48.367Z,12.54
2022-09-07T05:34:31.564Z,12.63
2022-09-07T05:36:59.617Z,12.77
2022-09-07T05:39:27.052Z,12.80
2022-09-07T05:41:54.363Z,12.88
2022-09-07T05:47:09.054Z,13.14
2022-09-07T05:49:36.094Z,13.27
2022-09-07T05:52:03.725Z,13.37
2022-09-07T05:54:30.754Z,13.46
2022-09-07T05:56:57.790Z,13.56
2022-09-07T05:59:24.944Z,13.76
2022-09-07T06:01:52.011Z,13.91
2022-09-07T06:04:19.276Z,14.01
2022-09-07T06:07:04.558Z,14.16
2022-09-07T06:09:33.667Z,14.28
2022-09-07T06:12:00.818Z,14.39
2022-09-07T06:14:27.866Z,14.50
2022-09-07T06:16:54.956Z,14.55
2022-09-07T06:19:22.114Z,14.70
2022-09-07T06:21:49.206Z,14.81
2022-09-07T06:24:16.392Z,14.87
2022-09-07T06:26:43.594Z,14.90
2022-09-07T06:29:10.810Z,14.93
2022-09-07T06:34:25.843Z,15.00
2022-09-07T06:36:53.105Z,15.11
2022-09-07T06:39:20.170Z,15.14
2022-09-07T06:42:02.582Z,15.15
2022-09-07T06:44:31.806Z,15.19
2022-09-07T06:49:29.261Z,15.46
2022-09-07T06:51:56.454Z,15.70
2022-09-07T06:57:10.769Z,15.95
2022-09-07T06:59:38.671Z,16.15
2022-09-07T07:02:07.296Z,16.25
2022-09-07T07:04:40.322Z,16.27
2022-09-07T07:07:14.680Z,16.37
2022-09-07T07:09:42.280Z,16.45
2022-09-07T07:12:10.755Z,16.52
2022-09-07T07:14:39.864Z,16.67
2022-09-07T07:17:10.527Z,16.83
2022-09-07T07:19:37.672Z,16.95
2022-09-07T07:22:18.703Z,17.08
2022-09-07T07:24:51.909Z,17.33
2022-09-07T07:27:19.112Z,17.42
2022-09-07T07:29:46.331Z,17.75
2022-09-07T07:32:13.456Z,17.96
2022-09-07T07:34:40.525Z,18.09
2022-09-07T07:37:07.534Z,18.36
2022-09-07T07:42:22.122Z,18.83
2022-09-07T07:44:49.232Z,19.01
2022-09-07T07:47:16.382Z,19.21
2022-09-07T07:49:43.547Z,19.36
2022-09-07T07:54:57.504Z,19.62
2022-09-07T07:57:24.646Z,19.72
2022-09-07T07:59:52.085Z,19.85
2022-09-07T08:02:19.190Z,19.94
2022-09-07T08:04:46.330Z,19.89
2022-09-07T08:07:13.510Z,19.97
2022-09-07T08:09:41.930Z,20.08
2022-09-07T08:12:11.521Z,20.35
2022-09-07T08:14:42.935Z,20.54
2022-09-07T08:17:14.940Z,20.61
2022-09-07T08:19:42.339Z,20.61
2022-09-07T08:22:10.974Z,20.68
2022-09-07T08:24:38.100Z,20.81
2022-09-07T08:27:05.516Z,20.87
2022-09-07T08:29:35.207Z,20.96
2022-09-07T08:32:05.202Z,21.01
2022-09-07T08:34:35.226Z,21.15
2022-09-07T08:37:02.260Z,21.07
2022-09-07T08:39:30.098Z,21.10
2022-09-07T08:42:03.495Z,21.24
2022-09-07T08:44:49.030Z,21.28
2022-09-07T08:47:32.264Z,21.34
2022-09-07T08:50:33.973Z,21.43
2022-09-07T08:53:14.604Z,21.53
2022-09-07T08:55:49.561Z,21.53
2022-09-07T08:58:48.216Z,21.71
2022-09-07T09:01:33.290Z,21.89
2022-09-07T09:04:17.904Z,21.93
2022-09-07T09:07:00.861Z,21.98
2022-09-07T09:09:52.038Z,21.97
2022-09-07T09:12:37.841Z,22.02
2022-09-07T09:15:32.410Z,21.97
2022-09-07T09:18:22.280Z,22.02
2022-09-07T09:20:52.523Z,22.09
2022-09-07T09:23:24.099Z,22.13
2022-09-07T09:25:56.860Z,22.24
2022-09-07T09:28:26.559Z,22.36
2022-09-07T09:30:56.063Z,22.37
2022-09-07T09:33:26.229Z,22.55
2022-09-07T09:35:56.535Z,22.81
2022-09-07T09:38:29.441Z,22.73
2022-09-07T09:40:58.448Z,22.87
2022-09-07T09:43:32.725Z,22.85
2022-09-07T09:46:17.463Z,22.87
2022-09-07T09:48:53.867Z,23.03
2022-09-07T09:54:25.494Z,22.96
2022-09-07T09:56:53.000Z,23.03
2022-09-07T10:05:31.351Z,23.35
2022-09-07T10:07:58.753Z,23.45
2022-09-07T10:10:27.699Z,23.49
2022-09-07T10:12:56.164Z,23.48
2022-09-07T10:15:41.897Z,23.39
2022-09-07T10:18:30.377Z,23.42
2022-09-07T10:21:21.049Z,23.43
2022-09-07T10:23:49.333Z,23.51
2022-09-07T10:26:32.301Z,23.50
2022-09-07T10:29:13.183Z,23.51
2022-09-07T10:32:06.613Z,23.69
2022-09-07T10:34:56.868Z,23.77
2022-09-07T10:37:53.111Z,23.86
2022-09-07T10:40:43.008Z,23.99
2022-09-07T10:43:22.143Z,23.99
2022-09-07T10:46:04.838Z,24.04
2022-09-07T10:48:36.097Z,24.09
2022-09-07T10:51:14.565Z,24.09
2022-09-07T10:57:04.075Z,24.14
2022-09-07T11:03:30.118Z,24.26
2022-09-07T11:06:15.520Z,24.44
2022-09-07T11:09:17.348Z,24.46
2022-09-07T11:12:04.282Z,24.54
2022-09-07T11:14:55.050Z,24.54
2022-09-07T11:17:23.745Z,24.44
2022-09-07T11:20:09.911Z,24.39
2022-09-07T11:22:47.722Z,24.46
2022-09-07T11:25:35.607Z,24.25
2022-09-07T11:28:13.422Z,24.06
2022-09-07T11:30:50.051Z,24.02
2022-09-07T11:33:24.989Z,24.09
2022-09-07T11:36:02.438Z,24.20
2022-09-07T11:38:39.537Z,24.32
2022-09-07T11:41:15.453Z,24.34
2022-09-07T11:43:47.312Z,24.27
2022-09-07T11:46:24.283Z,24.18
2022-09-07T11:48:54.906Z,24.25
2022-09-07T11:51:39.890Z,24.25
2022-09-07T11:54:43.992Z,24.25
2022-09-07T11:57:38.895Z,24.11
2022-09-07T12:00:11.408Z,24.01
2022-09-07T12:03:17.973Z,23.86
2022-09-07T12:06:25.778Z,23.88
2022-09-07T12:09:07.922Z,23.98
2022-09-07T12:12:12.586Z,23.99
2022-09-07T12:15:04.380Z,23.99
2022-09-07T12:18:01.078Z,24.01
2022-09-07T12:20:48.895Z,24.16
2022-09-07T12:23:15.862Z,24.18
2022-09-07T12:25:45.228Z,24.05
2022-09-07T12:28:24.431Z,23.87
2022-09-07T12:31:05.933Z,23.77
2022-09-07T12:33:36.044Z,23.76
2022-09-07T12:36:28.935Z,23.83
2022-09-07T12:39:20.980Z,23.89
2022-09-07T12:42:31.948Z,23.83
2022-09-07T12:44:38.369Z,23.80
2022-09-07T12:47:30.118Z,23.86
2022-09-07T12:50:06.328Z,23.79
2022-09-07T12:52:36.257Z,23.64
2022-09-07T12:56:15.504Z,23.50
2022-09-07T12:58:25.281Z,23.40
2022-09-07T13:01:10.792Z,23.48
2022-09-07T13:03:56.377Z,23.46
2022-09-07T13:07:10.745Z,23.41
2022-09-07T13:09:41.919Z,23.33
2022-09-07T13:15:44.009Z,22.92
2022-09-07T13:18:32.640Z,22.84
2022-09-07T13:21:08.396Z,22.76
2022-09-07T13:23:49.608Z,22.77
2022-09-07T13:26:55.076Z,22.65
2022-09-07T13:29:31.736Z,22.62
2022-09-07T13:33:07.938Z,22.59
2022-09-07T13:35:18.418Z,22.50
2022-09-07T13:37:59.239Z,22.39
2022-09-07T13:40:32.490Z,22.34
2022-09-07T13:43:01.068Z,22.34
2022-09-07T13:45:36.899Z,22.31
2022-09-07T13:48:25.449Z,22.34
2022-09-07T13:51:17.155Z,22.32
2022-09-07T13:53:56.315Z,22.23
2022-09-07T13:56:47.970Z,22.12
2022-09-07T13:59:21.725Z,22.03
2022-09-07T14:01:50.778Z,21.94
2022-09-07T14:04:20.617Z,21.89
2022-09-07T14:06:47.650Z,21.83
2022-09-07T14:09:16.279Z,21.81
2022-09-07T14:11:56.879Z,21.81
2022-09-07T14:14:29.737Z,21.76
2022-09-07T14:17:04.763Z,21.74
2022-09-07T14:19:42.576Z,21.74
2022-09-07T14:22:22.056Z,21.71
2022-09-07T14:24:53.499Z,21.64
2022-09-07T14:27:39.558Z,21.64
2022-09-07T14:30:19.732Z,21.64
2022-09-07T14:32:53.400Z,21.68
2022-09-07T14:35:23.581Z,21.68
2022-09-07T14:37:51.269Z,21.68
2022-09-07T14:40:22.799Z,21.67
2022-09-07T14:42:51.216Z,21.65
2022-09-07T14:45:31.066Z,21.62
2022-09-07T14:47:58.608Z,21.58
2022-09-07T14:50:25.524Z,21.55
2022-09-07T14:55:44.479Z,21.53
2022-09-07T14:58:14.235Z,21.48
2022-09-07T15:03:59.286Z,21.37
2022-09-07T15:09:36.415Z,21.29
2022-09-07T15:12:09.437Z,21.23
2022-09-07T15:14:36.626Z,21.20
2022-09-07T15:19:51.345Z,21.10
2022-09-07T15:22:19.113Z,21.09
2022-09-07T15:24:49.992Z,21.06
2022-09-07T15:27:21.928Z,21.04
2022-09-07T15:29:49.073Z,21.03
2022-09-07T15:32:18.196Z,20.99
2022-09-07T15:34:45.578Z,20.99
2022-09-07T15:40:01.473Z,20.93
2022-09-07T15:45:16.628Z,20.83
2022-09-07T15:47:48.171Z,20.77
2022-09-07T15:50:18.699Z,20.72
2022-09-07T15:52:46.378Z,20.68
2022-09-07T15:55:14.457Z,20.64
2022-09-07T15:57:59.356Z,20.59
2022-09-07T16:00:32.119Z,20.52
2022-09-07T16:03:08.102Z,20.43
2022-09-07T16:05:36.081Z,20.32
2022-09-07T16:10:55.689Z,20.24
2022-09-07T16:13:24.549Z,20.22
2022-09-07T16:15:52.084Z,20.17
2022-09-07T16:18:19.373Z,20.13
2022-09-07T16:20:47.294Z,20.10
2022-09-07T16:23:16.829Z,20.07
2022-09-07T16:25:57.310Z,20.04
2022-09-07T16:28:24.734Z,20.02
2022-09-07T16:30:51.810Z,20.01
2022-09-07T16:33:18.956Z,19.99
2022-09-07T16:35:59.476Z,20.00
2022-09-07T16:41:20.639Z,19.97
2022-09-07T16:43:47.947Z,19.97
2022-09-07T16:46:17.770Z,19.93
2022-09-07T16:48:45.587Z,19.89
2022-09-07T16:51:14.858Z,19.80
2022-09-07T16:53:42.886Z,19.81
2022-09-07T16:56:16.984Z,19.73
2022-09-07T16:58:46.300Z,19.67
2022-09-07T17:01:16.230Z,19.63
2022-09-07T17:03:44.077Z,19.54
2022-09-07T17:06:12.795Z,19.53
2022-09-07T17:08:40.735Z,19.47
2022-09-07T17:11:10.611Z,19.37
2022-09-07T17:13:39.566Z,19.35
2022-09-07T17:16:12.044Z,19.28
2022-09-07T17:21:36.630Z,19.17
2022-09-07T17:24:05.644Z,19.07
2022-09-07T17:26:32.969Z,19.03
2022-09-07T17:29:01.123Z,18.96
2022-09-07T17:34:19.884Z,18.86
2022-09-07T17:36:47.646Z,18.77
2022-09-07T17:39:17.735Z,18.72
2022-09-07T17:41:47.184Z,18.69
2022-09-07T17:44:14.510Z,18.65
2022-09-07T17:46:41.635Z,18.60
2022-09-07T17:49:16.888Z,18.55
2022-09-07T17:51:45.522Z,18.48
2022-09-07T17:54:15.907Z,18.47
2022-09-07T17:56:43.422Z,18.39
2022-09-07T18:01:58.582Z,18.30
2022-09-07T18:04:26.161Z,18.22
2022-09-07T18:06:54.522Z,18.22
2022-09-07T18:09:22.044Z,18.13
2022-09-07T18:11:50.297Z,18.14
2022-09-07T18:14:19.518Z,18.08
2022-09-07T18:16:50.110Z,18.03
2022-09-07T18:19:18.703Z,17.97
2022-09-07T18:21:48.104Z,17.93
2022-09-07T18:24:18.899Z,17.87
2022-09-07T18:26:51.796Z,17.84
2022-09-07T18:29:29.513Z,17.79
2022-09-07T18:31:59.639Z,17.77
2022-09-07T18:34:28.787Z,17.77
2022-09-07T18:36:56.153Z,17.72
2022-09-07T18:39:23.326Z,17.71
2022-09-07T18:41:50.582Z,17.68
2022-09-07T18:47:06.599Z,17.59
2022-09-07T18:49:34.380Z,17.50
2022-09-07T18:54:50.319Z,17.50
2022-09-07T18:57:17.506Z,17.50
2022-09-07T18:59:44.830Z,17.44
2022-09-07T19:02:12.405Z,17.43
2022-09-07T19:07:29.934Z,17.41
2022-09-07T19:09:58.371Z,17.38
2022-09-07T19:12:25.421Z,17.36
2022-09-07T19:14:52.527Z,17.35
2022-09-07T19:17:19.777Z,17.28
2022-09-07T19:19:47.279Z,17.26
2022-09-07T19:22:14.391Z,17.22
2022-09-07T19:24:41.470Z,17.21
2022-09-07T19:27:08.457Z,17.20
2022-09-07T19:29:35.681Z,17.19
2022-09-07T19:32:07.006Z,17.20
2022-09-07T19:34:36.573Z,17.18
2022-09-07T19:37:06.987Z,17.14
2022-09-07T19:39:33.964Z,17.07
2022-09-07T19:42:02.748Z,17.01
2022-09-07T19:44:30.028Z,16.98
2022-09-07T19:46:57.266Z,16.98
2022-09-07T19:49:24.543Z,16.97
2022-09-07T19:51:52.294Z,16.96
2022-09-07T19:54:19.624Z,16.95
2022-09-07T19:56:46.964Z,16.94
2022-09-07T19:59:14.711Z,16.91
2022-09-07T20:01:46.479Z,16.86
2022-09-07T20:04:20.342Z,16.88
2022-09-07T20:06:50.386Z,16.89
2022-09-07T20:09:19.093Z,16.89
2022-09-07T20:11:47.846Z,16.88
2022-09-07T20:14:18.573Z,16.88
2022-09-07T20:16:45.708Z,16.82
2022-09-07T20:19:16.390Z,16.83
2022-09-07T20:21:43.688Z,16.81
2022-09-07T20:24:14.795Z,16.78
2022-09-07T20:26:41.897Z,16.76
2022-09-07T20:29:27.682Z,16.74
2022-09-07T20:31:59.314Z,16.69
2022-09-07T20:34:27.588Z,16.68
2022-09-07T20:36:55.184Z,16.63
2022-09-07T20:39:22.288Z,16.61
2022-09-07T20:41:49.476Z,16.55
2022-09-07T20:44:17.379Z,16.56
2022-09-07T20:46:44.643Z,16.51
2022-09-07T20:49:11.832Z,16.45
2022-09-07T20:51:39.132Z,16.48
2022-09-07T20:54:07.373Z,16.48
2022-09-07T20:56:34.893Z,16.45
2022-09-07T20:59:03.753Z,16.42
2022-09-07T21:01:32.310Z,16.40
2022-09-07T21:04:02.152Z,16.37
2022-09-07T21:06:31.089Z,16.35
2022-09-07T21:08:58.635Z,16.32
2022-09-07T21:11:29.281Z,16.30
2022-09-07T21:13:58.514Z,16.28
2022-09-07T21:16:26.607Z,16.26
2022-09-07T21:18:56.547Z,16.22
2022-09-07T21:21:24.961Z,16.20
2022-09-07T21:24:00.289Z,16.18
2022-09-07T21:26:28.667Z,16.17
2022-09-07T21:28:57.467Z,16.16
2022-09-07T21:31:25.569Z,16.14
2022-09-07T21:33:57.853Z,16.14
2022-09-07T21:36:25.758Z,16.09
2022-09-07T21:38:54.453Z,16.12
2022-09-07T21:41:23.318Z,16.09
2022-09-07T21:43:55.481Z,16.06
2022-09-07T21:46:23.085Z,16.05
2022-09-07T21:48:50.236Z,16.04
2022-09-07T21:51:17.734Z,16.05
2022-09-07T21:53:44.780Z,16.06
2022-09-07T21:56:14.530Z,16.03
2022-09-07T21:58:43.850Z,16.02
2022-09-07T22:01:17.135Z,16.00
2022-09-07T22:03:46.656Z,15.98
2022-09-07T22:06:15.073Z,16.00
2022-09-07T22:08:42.916Z,16.00
2022-09-07T22:11:13.787Z,15.97
2022-09-07T22:13:41.606Z,15.97
2022-09-07T22:16:09.271Z,15.91
2022-09-07T22:18:38.108Z,15.91
2022-09-07T22:21:15.752Z,15.89
2022-09-07T22:23:45.670Z,15.87
2022-09-07T22:26:14.406Z,15.85
2022-09-07T22:28:42.234Z,15.82
2022-09-07T22:31:15.511Z,15.81
2022-09-07T22:33:43.568Z,15.73
2022-09-07T22:36:15.160Z,15.79
2022-09-07T22:38:44.043Z,15.80
2022-09-07T22:41:22.305Z,15.82
2022-09-07T22:43:51.136Z,15.80
2022-09-07T22:46:20.527Z,15.85
2022-09-07T22:48:48.518Z,15.86
2022-09-07T22:51:16.558Z,15.88
2022-09-07T22:53:44.699Z,15.90
2022-09-07T22:56:20.529Z,15.91
2022-09-07T22:58:50.228Z,15.88
2022-09-07T23:01:17.989Z,15.88
2022-09-07T23:03:45.713Z,15.88
2022-09-07T23:06:23.391Z,15.89
2022-09-07T23:08:51.600Z,15.87
2022-09-07T23:11:20.030Z,15.85
2022-09-07T23:13:51.261Z,15.86
2022-09-07T23:16:18.494Z,15.85
2022-09-07T23:18:46.293Z,15.84
2022-09-07T23:21:13.379Z,15.84
2022-09-07T23:23:40.638Z,15.83
2022-09-07T23:26:07.744Z,15.77
2022-09-07T23:28:35.149Z,15.78
2022-09-07T23:31:02.454Z,15.74
2022-09-07T23:33:30.581Z,15.73
2022-09-07T23:36:04.698Z,15.68
2022-09-07T23:38:32.615Z,15.66
2022-09-07T23:41:00.380Z,15.60
2022-09-07T23:43:29.090Z,15.50
2022-09-07T23:45:56.690Z,15.60
2022-09-07T23:48:24.166Z,15.60
2022-09-07T23:50:51.629Z,15.63
2022-09-07T23:53:19.261Z,15.61
2022-09-07T23:55:50.386Z,15.58
2022-09-07T23:58:18.148Z,15.56
